createdAt,value
2017-02-26T00:00:26.094Z,23.9
2017-02-26T00:01:34.195Z,23.9
2017-02-26T00:02:42.280Z,23.9
2017-02-26T00:03:50.375Z,23.9
2017-02-26T00:04:58.468Z,23.9
2017-02-26T00:06:06.561Z,23.8
2017-02-26T00:07:14.659Z,23.9
2017-02-26T00:08:22.747Z,24.0
2017-02-26T00:09:30.836Z,23.8
2017-02-26T00:10:38.928Z,23.9
2017-02-26T00:11:47.018Z,23.9
2017-02-26T00:12:55.110Z,23.9
2017-02-26T00:14:03.201Z,23.9
2017-02-26T00:15:11.288Z,23.9
2017-02-26T00:16:19.372Z,23.9
2017-02-26T00:17:27.469Z,23.9
2017-02-26T00:18:35.554Z,23.9
2017-02-26T00:19:43.647Z,23.9
2017-02-26T00:20:51.742Z,24.0
2017-02-26T00:21:59.833Z,23.9
2017-02-26T00:23:07.925Z,24.0
2017-02-26T00:24:16.014Z,24.0
2017-02-26T00:25:24.112Z,23.9
2017-02-26T00:26:32.206Z,23.9
2017-02-26T00:27:40.296Z,23.9
2017-02-26T00:28:48.387Z,24.0
2017-02-26T00:29:56.487Z,24.0
2017-02-26T00:31:04.577Z,24.1
2017-02-26T00:32:12.664Z,24.0
2017-02-26T00:33:20.756Z,24.0
2017-02-26T00:34:28.844Z,24.0
2017-02-26T00:35:36.935Z,24.0
2017-02-26T00:36:45.031Z,24.0
2017-02-26T00:37:53.126Z,24.0
2017-02-26T00:39:01.218Z,24.1
2017-02-26T00:40:09.313Z,24.0
2017-02-26T00:41:17.408Z,24.1
2017-02-26T00:42:25.503Z,24.1
2017-02-26T00:43:33.588Z,24.1
2017-02-26T00:44:41.680Z,24.1
2017-02-26T00:45:49.768Z,24.1
2017-02-26T00:46:57.855Z,24.1
2017-02-26T00:48:05.944Z,24.1
2017-02-26T00:49:14.041Z,24.2
2017-02-26T00:50:22.128Z,24.2
2017-02-26T00:51:30.216Z,24.2
2017-02-26T00:52:38.313Z,24.2
2017-02-26T00:53:46.406Z,24.2
2017-02-26T00:54:54.501Z,24.2
2017-02-26T00:56:02.593Z,24.2
2017-02-26T00:57:10.685Z,24.2
2017-02-26T00:58:18.772Z,24.2
2017-02-26T00:59:26.864Z,24.3
2017-02-26T01:00:34.955Z,24.2
2017-02-26T01:01:43.050Z,24.2
2017-02-26T01:02:51.132Z,24.2
2017-02-26T01:03:59.229Z,24.2
2017-02-26T01:05:07.315Z,24.2
2017-02-26T01:06:15.410Z,24.3
2017-02-26T01:07:23.497Z,24.2
2017-02-26T01:08:31.593Z,24.3
2017-02-26T01:09:39.680Z,24.3
2017-02-26T01:10:47.774Z,24.2
2017-02-26T01:11:55.898Z,24.2
2017-02-26T01:13:03.957Z,24.3
2017-02-26T01:14:12.042Z,24.2
2017-02-26T01:15:20.138Z,24.3
2017-02-26T01:16:28.234Z,24.2
2017-02-26T01:17:36.324Z,24.3
2017-02-26T01:18:44.414Z,24.2
2017-02-26T01:19:52.498Z,24.3
2017-02-26T01:21:00.591Z,24.2
2017-02-26T01:22:08.678Z,24.2
2017-02-26T01:23:16.768Z,24.2
2017-02-26T01:24:24.869Z,24.3
2017-02-26T01:25:32.963Z,24.2
2017-02-26T01:26:41.048Z,24.2
2017-02-26T01:27:49.147Z,24.2
2017-02-26T01:28:57.283Z,24.2
2017-02-26T01:30:05.338Z,24.2
2017-02-26T01:31:13.422Z,24.2
2017-02-26T01:32:21.512Z,24.2
2017-02-26T01:33:29.608Z,24.2
2017-02-26T01:34:37.695Z,24.2
2017-02-26T01:35:45.824Z,24.2
2017-02-26T01:36:53.886Z,24.2
2017-02-26T01:38:01.973Z,24.2
2017-02-26T01:39:10.068Z,24.2
2017-02-26T01:40:18.171Z,24.2
2017-02-26T01:41:26.265Z,24.1
2017-02-26T01:42:34.358Z,24.2
2017-02-26T01:43:42.453Z,24.1
2017-02-26T01:44:50.542Z,24.1
2017-02-26T01:45:58.626Z,24.2
2017-02-26T01:47:06.719Z,24.1
2017-02-26T01:48:14.810Z,24.1
2017-02-26T01:49:22.900Z,24.1
2017-02-26T01:50:30.990Z,24.1
2017-02-26T01:51:39.079Z,24.1
2017-02-26T01:52:47.169Z,24.1
2017-02-26T01:53:55.264Z,24.1
2017-02-26T01:55:03.348Z,24.1
2017-02-26T01:56:11.443Z,24.0
2017-02-26T01:57:19.531Z,24.0
2017-02-26T01:58:27.620Z,24.1
2017-02-26T01:59:35.709Z,24.0
2017-02-26T02:00:43.797Z,24.0
2017-02-26T02:01:51.889Z,24.1
2017-02-26T02:02:59.975Z,24.0
2017-02-26T02:04:08.068Z,24.0
2017-02-26T02:05:16.162Z,23.9
2017-02-26T02:06:24.252Z,24.1
2017-02-26T02:07:32.343Z,24.1
2017-02-26T02:08:40.437Z,23.9
2017-02-26T02:09:48.520Z,24.0
2017-02-26T02:10:56.619Z,24.0
2017-02-26T02:12:04.712Z,24.0
2017-02-26T02:13:12.797Z,23.9
2017-02-26T02:14:20.890Z,24.0
2017-02-26T02:15:28.983Z,24.0
2017-02-26T02:16:37.074Z,23.9
2017-02-26T02:17:45.168Z,23.9
2017-02-26T02:18:53.257Z,23.9
2017-02-26T02:20:01.351Z,23.9
2017-02-26T02:21:09.442Z,23.9
2017-02-26T02:22:17.528Z,23.9
2017-02-26T02:23:25.624Z,23.9
2017-02-26T02:24:33.706Z,23.9
2017-02-26T02:25:41.788Z,23.8
2017-02-26T02:26:49.881Z,23.9
2017-02-26T02:27:57.971Z,23.9
2017-02-26T02:29:06.058Z,23.9
2017-02-26T02:30:14.142Z,23.8
2017-02-26T02:31:22.235Z,23.8
2017-02-26T02:32:30.335Z,23.8
2017-02-26T02:33:38.424Z,23.8
2017-02-26T02:34:46.515Z,23.7
2017-02-26T02:35:54.608Z,23.8
2017-02-26T02:37:02.698Z,23.8
2017-02-26T02:38:10.791Z,23.8
2017-02-26T02:39:18.883Z,23.7
2017-02-26T02:40:26.975Z,23.7
2017-02-26T02:41:35.063Z,23.8
2017-02-26T02:42:43.154Z,23.7
2017-02-26T02:43:51.245Z,23.7
2017-02-26T02:44:59.336Z,23.6
2017-02-26T02:46:07.418Z,23.7
2017-02-26T02:47:15.518Z,23.7
2017-02-26T02:48:23.605Z,23.6
2017-02-26T02:49:31.696Z,23.6
2017-02-26T02:50:39.793Z,23.6
2017-02-26T02:51:47.888Z,23.6
2017-02-26T02:52:55.985Z,23.6
2017-02-26T02:54:04.068Z,23.7
2017-02-26T02:55:12.156Z,23.6
2017-02-26T02:56:20.245Z,23.6
2017-02-26T02:57:28.333Z,23.6
2017-02-26T02:58:36.431Z,23.5
2017-02-26T02:59:44.519Z,23.5
2017-02-26T03:00:52.603Z,23.5
2017-02-26T03:02:00.695Z,23.6
2017-02-26T03:03:08.779Z,23.6
2017-02-26T03:04:16.873Z,23.5
2017-02-26T03:05:24.955Z,23.5
2017-02-26T03:06:33.102Z,23.5
2017-02-26T03:07:41.143Z,23.4
2017-02-26T03:08:49.229Z,23.5
2017-02-26T03:09:57.316Z,23.4
2017-02-26T03:11:05.409Z,23.5
2017-02-26T03:12:13.503Z,23.4
2017-02-26T03:13:21.589Z,23.4
2017-02-26T03:14:29.684Z,23.3
2017-02-26T03:15:37.767Z,23.5
2017-02-26T03:16:45.859Z,23.4
2017-02-26T03:17:53.954Z,23.4
2017-02-26T03:19:02.041Z,23.3
2017-02-26T03:20:10.131Z,23.3
2017-02-26T03:21:18.213Z,23.3
2017-02-26T03:22:26.305Z,23.4
2017-02-26T03:23:34.420Z,23.4
2017-02-26T03:24:42.482Z,23.3
2017-02-26T03:25:50.575Z,23.3
2017-02-26T03:26:58.667Z,23.3
2017-02-26T03:28:06.754Z,23.3
2017-02-26T03:29:14.841Z,23.2
2017-02-26T03:30:22.931Z,23.3
2017-02-26T03:31:31.019Z,23.2
2017-02-26T03:32:39.111Z,23.2
2017-02-26T03:33:47.202Z,23.2
2017-02-26T03:34:55.301Z,23.2
2017-02-26T03:36:03.392Z,23.2
2017-02-26T03:37:11.479Z,23.1
2017-02-26T03:38:19.571Z,23.2
2017-02-26T03:39:27.670Z,23.1
2017-02-26T03:40:35.753Z,23.1
2017-02-26T03:41:43.851Z,23.1
2017-02-26T03:42:51.941Z,23.1
2017-02-26T03:44:00.030Z,23.1
2017-02-26T03:45:08.115Z,23.1
2017-02-26T03:46:16.212Z,23.0
2017-02-26T03:47:24.298Z,23.0
2017-02-26T03:48:32.382Z,23.0
2017-02-26T03:49:40.476Z,22.9
2017-02-26T03:50:48.566Z,23.0
2017-02-26T03:51:56.653Z,22.9
2017-02-26T03:53:04.740Z,23.0
2017-02-26T03:54:12.835Z,22.9
2017-02-26T03:55:20.924Z,22.9
2017-02-26T03:56:29.012Z,22.9
2017-02-26T03:57:37.096Z,23.0
2017-02-26T03:58:45.224Z,22.9
2017-02-26T03:59:53.273Z,22.8
2017-02-26T04:01:01.371Z,22.9
2017-02-26T04:02:09.459Z,22.7
2017-02-26T04:03:17.550Z,22.8
2017-02-26T04:04:25.639Z,22.8
2017-02-26T04:05:33.735Z,22.8
2017-02-26T04:06:41.826Z,22.8
2017-02-26T04:07:49.909Z,22.8
2017-02-26T04:08:58.003Z,22.8
2017-02-26T04:10:06.085Z,22.8
2017-02-26T04:11:14.176Z,22.8
2017-02-26T04:12:22.258Z,22.8
2017-02-26T04:13:30.348Z,22.7
2017-02-26T04:14:38.432Z,22.7
2017-02-26T04:15:46.519Z,22.7
2017-02-26T04:16:54.612Z,22.6
2017-02-26T04:18:02.701Z,22.6
2017-02-26T04:19:10.787Z,22.7
2017-02-26T04:20:18.870Z,22.6
2017-02-26T04:21:26.965Z,22.6
2017-02-26T04:22:35.053Z,22.6
2017-02-26T04:23:43.137Z,22.5
2017-02-26T04:24:51.226Z,22.5
2017-02-26T04:25:59.315Z,22.6
2017-02-26T04:27:07.403Z,22.6
2017-02-26T04:28:15.489Z,22.6
2017-02-26T04:29:23.573Z,22.5
2017-02-26T04:30:31.665Z,22.6
2017-02-26T04:31:39.754Z,22.5
2017-02-26T04:32:47.844Z,22.4
2017-02-26T04:33:55.938Z,22.5
2017-02-26T04:35:04.028Z,22.5
2017-02-26T04:36:12.116Z,22.4
2017-02-26T04:37:20.204Z,22.4
2017-02-26T04:38:28.292Z,22.4
2017-02-26T04:39:36.372Z,22.4
2017-02-26T04:40:44.467Z,22.4
2017-02-26T04:41:52.552Z,22.3
2017-02-26T04:43:00.647Z,22.3
2017-02-26T04:44:08.728Z,22.2
2017-02-26T04:45:16.822Z,22.3
2017-02-26T04:46:24.914Z,22.3
2017-02-26T04:47:32.998Z,22.3
2017-02-26T04:48:41.088Z,22.2
2017-02-26T04:49:49.180Z,22.2
2017-02-26T04:50:57.267Z,22.2
2017-02-26T04:52:05.354Z,22.2
2017-02-26T04:53:13.446Z,22.2
2017-02-26T04:54:21.532Z,22.2
2017-02-26T04:55:29.623Z,22.1
2017-02-26T04:56:37.714Z,22.1
2017-02-26T04:57:45.796Z,22.1
2017-02-26T04:58:53.884Z,22.0
2017-02-26T05:00:01.971Z,22.1
2017-02-26T05:01:10.132Z,22.0
2017-02-26T05:02:18.154Z,22.0
2017-02-26T05:03:26.235Z,22.0
2017-02-26T05:04:34.326Z,21.9
2017-02-26T05:05:42.415Z,22.0
2017-02-26T05:06:50.499Z,21.9
2017-02-26T05:07:58.583Z,21.9
2017-02-26T05:09:06.685Z,21.9
2017-02-26T05:10:14.770Z,21.9
2017-02-26T05:11:22.854Z,21.9
2017-02-26T05:12:30.944Z,21.9
2017-02-26T05:13:39.035Z,21.8
2017-02-26T05:14:47.115Z,21.8
2017-02-26T05:15:55.206Z,21.8
2017-02-26T05:17:03.299Z,21.7
2017-02-26T05:18:11.442Z,21.8
2017-02-26T05:19:19.483Z,21.8
2017-02-26T05:20:27.571Z,21.7
2017-02-26T05:21:35.667Z,21.7
2017-02-26T05:22:43.751Z,21.7
2017-02-26T05:23:51.844Z,21.6
2017-02-26T05:24:59.934Z,21.7
2017-02-26T05:26:08.017Z,21.6
2017-02-26T05:27:16.104Z,21.7
2017-02-26T05:28:24.196Z,21.7
2017-02-26T05:29:32.284Z,21.6
2017-02-26T05:30:40.373Z,21.7
2017-02-26T05:31:48.457Z,21.6
2017-02-26T05:32:56.546Z,21.6
2017-02-26T05:34:04.637Z,21.6
2017-02-26T05:35:12.721Z,21.6
2017-02-26T05:36:20.811Z,21.6
2017-02-26T05:37:28.898Z,21.6
2017-02-26T05:38:36.978Z,21.6
2017-02-26T05:39:45.065Z,21.6
2017-02-26T05:40:53.155Z,21.5
2017-02-26T05:42:01.244Z,21.6
2017-02-26T05:43:09.329Z,21.5
2017-02-26T05:44:17.419Z,21.5
2017-02-26T05:45:25.511Z,21.5
2017-02-26T05:46:33.594Z,21.4
2017-02-26T05:47:41.681Z,21.4
2017-02-26T05:48:49.771Z,21.3
2017-02-26T05:49:57.849Z,21.4
2017-02-26T05:51:05.940Z,21.4
2017-02-26T05:52:14.027Z,21.4
2017-02-26T05:53:22.121Z,21.4
2017-02-26T05:54:30.211Z,21.3
2017-02-26T05:55:38.296Z,21.3
2017-02-26T05:56:46.387Z,21.3
2017-02-26T05:57:54.472Z,21.2
2017-02-26T05:59:02.556Z,21.3
2017-02-26T06:00:10.648Z,21.2
2017-02-26T06:01:18.732Z,21.3
2017-02-26T06:02:26.817Z,21.3
2017-02-26T06:03:34.911Z,21.2
2017-02-26T06:04:42.997Z,21.2
2017-02-26T06:05:51.088Z,21.3
2017-02-26T06:06:59.171Z,21.2
2017-02-26T06:08:07.256Z,21.2
2017-02-26T06:09:15.343Z,21.1
2017-02-26T06:10:23.429Z,21.1
2017-02-26T06:11:31.516Z,21.1
2017-02-26T06:12:39.604Z,21.1
2017-02-26T06:13:47.691Z,21.0
2017-02-26T06:14:55.780Z,21.1
2017-02-26T06:16:03.869Z,21.0
2017-02-26T06:17:11.955Z,21.1
2017-02-26T06:18:20.033Z,21.0
2017-02-26T06:19:28.125Z,21.0
2017-02-26T06:20:36.211Z,21.0
2017-02-26T06:21:44.296Z,20.9
2017-02-26T06:22:52.380Z,21.0
2017-02-26T06:24:00.470Z,20.9
2017-02-26T06:25:08.555Z,20.9
2017-02-26T06:26:16.642Z,20.9
2017-02-26T06:27:24.731Z,20.9
2017-02-26T06:28:32.820Z,20.9
2017-02-26T06:29:40.912Z,20.9
2017-02-26T06:30:49.008Z,20.9
2017-02-26T06:31:57.093Z,20.9
2017-02-26T06:33:05.185Z,20.8
2017-02-26T06:34:13.267Z,20.9
2017-02-26T06:35:21.358Z,20.9
2017-02-26T06:36:29.444Z,20.8
2017-02-26T06:37:37.534Z,20.8
2017-02-26T06:38:45.618Z,20.8
2017-02-26T06:39:53.713Z,20.8
2017-02-26T06:41:01.805Z,20.7
2017-02-26T06:42:09.887Z,20.8
2017-02-26T06:43:17.978Z,20.8
2017-02-26T06:44:26.065Z,20.7
2017-02-26T06:45:34.152Z,20.7
2017-02-26T06:46:42.247Z,20.7
2017-02-26T06:47:50.331Z,20.7
2017-02-26T06:48:58.415Z,20.7
2017-02-26T06:50:06.501Z,20.7
2017-02-26T06:51:14.593Z,20.7
2017-02-26T06:52:22.703Z,20.6
2017-02-26T06:53:30.765Z,20.6
2017-02-26T06:54:38.858Z,20.6
2017-02-26T06:55:46.954Z,20.6
2017-02-26T06:56:55.030Z,20.5
2017-02-26T06:58:03.122Z,20.5
2017-02-26T06:59:11.207Z,20.5
2017-02-26T07:00:19.298Z,20.5
2017-02-26T07:01:27.386Z,20.5
2017-02-26T07:02:35.477Z,20.5
2017-02-26T07:03:43.560Z,20.5
2017-02-26T07:04:51.649Z,20.4
2017-02-26T07:05:59.734Z,20.4
2017-02-26T07:07:07.831Z,20.5
2017-02-26T07:08:16.117Z,20.5
2017-02-26T07:09:24.108Z,20.4
2017-02-26T07:10:32.231Z,20.4
2017-02-26T07:11:40.219Z,20.5
2017-02-26T07:12:48.262Z,20.5
2017-02-26T07:13:57.178Z,20.5
2017-02-26T07:15:04.453Z,20.5
2017-02-26T07:16:12.519Z,20.5
2017-02-26T07:17:20.842Z,20.5
2017-02-26T07:18:28.701Z,20.5
2017-02-26T07:19:36.793Z,20.5
2017-02-26T07:20:44.884Z,20.6
2017-02-26T07:21:52.971Z,20.6
2017-02-26T07:23:01.055Z,20.6
2017-02-26T07:24:09.147Z,20.6
2017-02-26T07:25:17.236Z,20.7
2017-02-26T07:26:26.040Z,20.7
2017-02-26T07:27:33.426Z,20.7
2017-02-26T07:28:41.512Z,20.7
2017-02-26T07:29:49.607Z,20.7
2017-02-26T07:30:57.693Z,20.7
2017-02-26T07:32:05.784Z,20.7
2017-02-26T07:33:13.869Z,20.8
2017-02-26T07:34:22.345Z,20.8
2017-02-26T07:35:30.053Z,20.8
2017-02-26T07:36:38.376Z,20.8
2017-02-26T07:37:46.223Z,20.8
2017-02-26T07:38:54.318Z,20.8
2017-02-26T07:40:02.414Z,20.9
2017-02-26T07:41:10.490Z,20.9
2017-02-26T07:42:18.604Z,20.9
2017-02-26T07:43:26.667Z,20.9
2017-02-26T07:44:35.194Z,20.9
2017-02-26T07:45:43.065Z,20.9
2017-02-26T07:46:50.982Z,21.0
2017-02-26T07:47:59.025Z,20.9
2017-02-26T07:49:07.101Z,21.0
2017-02-26T07:50:15.194Z,21.1
2017-02-26T07:51:23.284Z,21.1
2017-02-26T07:52:31.372Z,21.1
2017-02-26T07:53:39.459Z,21.0
2017-02-26T07:54:47.549Z,21.1
2017-02-26T07:55:56.359Z,21.1
2017-02-26T07:57:03.723Z,21.2
2017-02-26T07:58:11.809Z,21.2
2017-02-26T07:59:19.902Z,21.1
2017-02-26T08:00:28.358Z,21.2
2017-02-26T08:01:36.081Z,21.3
2017-02-26T08:02:44.175Z,21.3
2017-02-26T08:03:52.258Z,21.3
2017-02-26T08:05:00.695Z,21.4
2017-02-26T08:06:08.439Z,21.4
2017-02-26T08:07:16.529Z,21.4
2017-02-26T08:08:24.617Z,21.4
2017-02-26T08:09:32.701Z,21.4
2017-02-26T08:10:40.786Z,21.5
2017-02-26T08:11:48.877Z,21.5
2017-02-26T08:12:56.966Z,21.5
2017-02-26T08:14:05.066Z,21.6
2017-02-26T08:15:13.145Z,21.5
2017-02-26T08:16:21.233Z,21.5
2017-02-26T08:17:29.375Z,21.5
2017-02-26T08:18:37.420Z,21.6
2017-02-26T08:19:45.514Z,21.6
2017-02-26T08:20:53.592Z,21.6
2017-02-26T08:22:01.696Z,21.7
2017-02-26T08:23:09.779Z,21.6
2017-02-26T08:24:17.863Z,21.6
2017-02-26T08:25:25.984Z,21.6
2017-02-26T08:26:34.043Z,21.6
2017-02-26T08:27:42.126Z,21.7
2017-02-26T08:28:50.327Z,21.7
2017-02-26T08:29:58.314Z,21.7
2017-02-26T08:31:06.402Z,21.6
2017-02-26T08:32:14.493Z,21.8
2017-02-26T08:33:22.584Z,21.8
2017-02-26T08:34:30.670Z,21.8
2017-02-26T08:35:38.755Z,21.8
2017-02-26T08:36:46.852Z,21.8
2017-02-26T08:37:54.935Z,21.8
2017-02-26T08:39:03.020Z,21.9
2017-02-26T08:40:11.111Z,21.8
2017-02-26T08:41:19.204Z,21.9
2017-02-26T08:42:27.299Z,21.9
2017-02-26T08:43:35.386Z,22.0
2017-02-26T08:44:43.468Z,21.9
2017-02-26T08:45:51.564Z,21.9
2017-02-26T08:46:59.652Z,22.0
2017-02-26T08:48:07.738Z,21.9
2017-02-26T08:49:15.835Z,21.9
2017-02-26T08:50:23.958Z,22.0
2017-02-26T08:51:32.014Z,21.9
2017-02-26T08:52:40.104Z,21.9
2017-02-26T08:53:48.203Z,22.0
2017-02-26T08:54:56.361Z,22.1
2017-02-26T08:56:04.373Z,22.1
2017-02-26T08:57:12.463Z,22.1
2017-02-26T08:58:20.551Z,22.1
2017-02-26T08:59:28.635Z,22.1
2017-02-26T09:00:36.727Z,22.1
2017-02-26T09:01:44.816Z,22.1
2017-02-26T09:02:52.903Z,22.0
2017-02-26T09:04:00.991Z,22.2
2017-02-26T09:05:09.085Z,22.1
2017-02-26T09:06:17.176Z,22.1
2017-02-26T09:07:25.262Z,22.2
2017-02-26T09:08:33.387Z,22.2
2017-02-26T09:09:41.439Z,22.1
2017-02-26T09:10:49.536Z,22.3
2017-02-26T09:11:57.620Z,22.3
2017-02-26T09:13:05.711Z,22.2
2017-02-26T09:14:13.792Z,22.2
2017-02-26T09:15:21.885Z,22.2
2017-02-26T09:16:29.976Z,22.2
2017-02-26T09:17:38.064Z,22.3
2017-02-26T09:18:46.151Z,22.2
2017-02-26T09:19:54.241Z,22.3
2017-02-26T09:21:02.334Z,22.3
2017-02-26T09:22:10.425Z,22.3
2017-02-26T09:23:18.511Z,22.2
2017-02-26T09:24:26.639Z,22.3
2017-02-26T09:25:34.688Z,22.3
2017-02-26T09:26:42.775Z,22.2
2017-02-26T09:27:50.907Z,22.3
2017-02-26T09:28:58.964Z,22.3
2017-02-26T09:30:07.046Z,22.3
2017-02-26T09:31:15.130Z,22.2
2017-02-26T09:32:23.221Z,22.3
2017-02-26T09:33:31.307Z,22.3
2017-02-26T09:34:39.394Z,22.3
2017-02-26T09:35:47.479Z,22.2
2017-02-26T09:36:55.571Z,22.4
2017-02-26T09:38:03.688Z,22.2
2017-02-26T09:39:11.751Z,22.3
2017-02-26T09:40:19.843Z,22.3
2017-02-26T09:41:27.989Z,22.3
2017-02-26T09:42:36.024Z,22.3
2017-02-26T09:43:44.109Z,22.3
2017-02-26T09:44:52.208Z,22.3
2017-02-26T09:46:00.305Z,22.3
2017-02-26T09:47:08.381Z,22.4
2017-02-26T09:48:16.476Z,22.4
2017-02-26T09:49:24.567Z,22.4
2017-02-26T09:50:32.652Z,22.3
2017-02-26T09:51:40.741Z,22.3
2017-02-26T09:52:48.839Z,22.4
2017-02-26T09:53:56.928Z,22.3
2017-02-26T09:55:05.013Z,22.3
2017-02-26T09:56:13.107Z,22.4
2017-02-26T09:57:21.201Z,22.4
2017-02-26T09:58:29.289Z,22.3
2017-02-26T09:59:37.374Z,22.3
2017-02-26T10:00:45.464Z,22.4
2017-02-26T10:01:53.552Z,22.4
2017-02-26T10:03:01.644Z,22.3
2017-02-26T10:04:09.734Z,22.3
2017-02-26T10:05:17.827Z,22.4
2017-02-26T10:06:25.912Z,22.3
2017-02-26T10:07:34.003Z,22.3
2017-02-26T10:08:42.093Z,22.3
2017-02-26T10:09:50.182Z,22.3
2017-02-26T10:10:58.275Z,22.3
2017-02-26T10:12:06.371Z,22.4
2017-02-26T10:13:14.456Z,22.4
2017-02-26T10:14:22.540Z,22.4
2017-02-26T10:15:30.630Z,22.3
2017-02-26T10:16:38.722Z,22.3
2017-02-26T10:17:46.814Z,22.3
2017-02-26T10:18:54.893Z,22.4
2017-02-26T10:20:02.983Z,22.3
2017-02-26T10:21:11.082Z,22.3
2017-02-26T10:22:19.172Z,22.3
2017-02-26T10:23:27.257Z,22.3
2017-02-26T10:24:35.347Z,22.3
2017-02-26T10:25:43.437Z,22.2
2017-02-26T10:26:51.525Z,22.4
2017-02-26T10:27:59.614Z,22.3
2017-02-26T10:29:07.700Z,22.3
2017-02-26T10:30:15.788Z,22.3
2017-02-26T10:31:23.880Z,22.3
2017-02-26T10:32:31.970Z,22.3
2017-02-26T10:33:40.063Z,22.3
2017-02-26T10:34:48.148Z,22.3
2017-02-26T10:35:56.240Z,22.3
2017-02-26T10:37:04.332Z,22.3
2017-02-26T10:38:12.419Z,22.3
2017-02-26T10:39:20.511Z,22.3
2017-02-26T10:40:28.594Z,22.2
2017-02-26T10:41:36.684Z,22.2
2017-02-26T10:42:44.771Z,22.3
2017-02-26T10:43:52.865Z,22.2
2017-02-26T10:45:01.165Z,22.3
2017-02-26T10:46:09.044Z,22.3
2017-02-26T10:47:17.130Z,22.3
2017-02-26T10:48:25.224Z,22.3
2017-02-26T10:49:33.309Z,22.3
2017-02-26T10:50:41.395Z,22.3
2017-02-26T10:51:49.490Z,22.3
2017-02-26T10:52:57.580Z,22.3
2017-02-26T10:54:05.670Z,22.2
2017-02-26T10:55:13.757Z,22.3
2017-02-26T10:56:21.849Z,22.3
2017-02-26T10:57:29.947Z,22.3
2017-02-26T10:58:38.041Z,22.2
2017-02-26T10:59:46.135Z,22.2
2017-02-26T11:00:54.225Z,22.3
2017-02-26T11:02:02.311Z,22.3
2017-02-26T11:03:10.401Z,22.3
2017-02-26T11:04:18.487Z,22.3
2017-02-26T11:05:26.570Z,22.3
2017-02-26T11:06:34.659Z,22.3
2017-02-26T11:07:42.747Z,22.3
2017-02-26T11:08:50.843Z,22.3
2017-02-26T11:09:58.931Z,22.3
2017-02-26T11:11:07.020Z,22.4
2017-02-26T11:12:15.111Z,22.3
2017-02-26T11:13:23.204Z,22.3
2017-02-26T11:14:31.288Z,22.4
2017-02-26T11:15:39.379Z,22.4
2017-02-26T11:16:47.464Z,22.4
2017-02-26T11:17:55.550Z,22.4
2017-02-26T11:19:03.677Z,22.4
2017-02-26T11:20:11.729Z,22.4
2017-02-26T11:21:19.820Z,22.3
2017-02-26T11:22:27.914Z,22.4
2017-02-26T11:23:35.995Z,22.4
2017-02-26T11:24:44.083Z,22.4
2017-02-26T11:25:52.173Z,22.4
2017-02-26T11:27:00.265Z,22.4
2017-02-26T11:28:08.351Z,22.4
2017-02-26T11:29:16.436Z,22.5
2017-02-26T11:30:24.532Z,22.5
2017-02-26T11:31:32.624Z,22.5
2017-02-26T11:32:40.713Z,22.5
2017-02-26T11:33:48.800Z,22.5
2017-02-26T11:34:56.894Z,22.5
2017-02-26T11:36:05.017Z,22.6
2017-02-26T11:37:13.067Z,22.5
2017-02-26T11:38:21.160Z,22.5
2017-02-26T11:39:29.244Z,22.5
2017-02-26T11:40:37.340Z,22.6
2017-02-26T11:41:45.427Z,22.5
2017-02-26T11:42:53.516Z,22.6
2017-02-26T11:44:01.605Z,22.6
2017-02-26T11:45:09.697Z,22.6
2017-02-26T11:46:17.783Z,22.6
2017-02-26T11:47:25.870Z,22.6
2017-02-26T11:48:33.965Z,22.6
2017-02-26T11:49:42.047Z,22.5
2017-02-26T11:50:50.143Z,22.6
2017-02-26T11:51:58.231Z,22.6
2017-02-26T11:53:06.312Z,22.6
2017-02-26T11:54:14.409Z,22.5
2017-02-26T11:55:22.496Z,22.6
2017-02-26T11:56:30.587Z,22.5
2017-02-26T11:57:38.672Z,22.6
2017-02-26T11:58:46.763Z,22.6
2017-02-26T11:59:54.854Z,22.7
2017-02-26T12:01:02.941Z,22.6
2017-02-26T12:02:11.031Z,22.6
2017-02-26T12:03:19.118Z,22.6
2017-02-26T12:04:27.204Z,22.6
2017-02-26T12:05:35.292Z,22.6
2017-02-26T12:06:43.379Z,22.6
2017-02-26T12:07:51.473Z,22.6
2017-02-26T12:08:59.561Z,22.6
2017-02-26T12:10:07.663Z,22.6
2017-02-26T12:11:15.751Z,22.6
2017-02-26T12:12:23.835Z,22.6
2017-02-26T12:13:31.921Z,22.6
2017-02-26T12:14:40.021Z,22.6
2017-02-26T12:15:48.105Z,22.6
2017-02-26T12:16:56.192Z,22.6
2017-02-26T12:18:04.367Z,22.6
2017-02-26T12:19:12.375Z,22.6
2017-02-26T12:20:20.465Z,22.6
2017-02-26T12:21:28.547Z,22.6
2017-02-26T12:22:36.646Z,22.6
2017-02-26T12:23:44.734Z,22.6
2017-02-26T12:24:52.821Z,22.6
2017-02-26T12:26:00.917Z,22.6
2017-02-26T12:27:09.003Z,22.6
2017-02-26T12:28:17.087Z,22.6
2017-02-26T12:29:25.179Z,22.7
2017-02-26T12:30:33.268Z,22.6
2017-02-26T12:31:41.356Z,22.7
2017-02-26T12:32:49.442Z,22.6
2017-02-26T12:33:57.537Z,22.6
2017-02-26T12:35:05.631Z,22.6
2017-02-26T12:36:13.721Z,22.6
2017-02-26T12:37:21.808Z,22.7
2017-02-26T12:38:29.901Z,22.6
2017-02-26T12:39:37.991Z,22.7
2017-02-26T12:40:46.076Z,22.7
2017-02-26T12:41:54.170Z,22.8
2017-02-26T12:43:02.257Z,22.8
2017-02-26T12:44:10.345Z,22.7
2017-02-26T12:45:18.432Z,22.7
2017-02-26T12:46:26.522Z,22.8
2017-02-26T12:47:34.611Z,22.8
2017-02-26T12:48:42.696Z,22.8
2017-02-26T12:49:50.787Z,22.8
2017-02-26T12:50:58.875Z,22.8
2017-02-26T12:52:06.959Z,22.9
2017-02-26T12:53:15.049Z,22.8
2017-02-26T12:54:23.141Z,22.9
2017-02-26T12:55:31.228Z,22.8
2017-02-26T12:56:39.313Z,22.9
2017-02-26T12:57:47.404Z,22.8
2017-02-26T12:58:55.500Z,22.9
2017-02-26T13:00:03.583Z,22.8
2017-02-26T13:01:11.677Z,22.9
2017-02-26T13:02:19.772Z,22.9
2017-02-26T13:03:27.856Z,23.0
2017-02-26T13:04:35.942Z,23.0
2017-02-26T13:05:44.031Z,23.0
2017-02-26T13:06:52.119Z,22.9
2017-02-26T13:08:00.205Z,23.1
2017-02-26T13:09:08.298Z,23.0
2017-02-26T13:10:16.385Z,23.0
2017-02-26T13:11:24.473Z,23.1
2017-02-26T13:12:32.559Z,23.0
2017-02-26T13:13:40.651Z,23.0
2017-02-26T13:14:48.736Z,23.1
2017-02-26T13:15:56.827Z,23.1
2017-02-26T13:17:04.921Z,23.1
2017-02-26T13:18:13.063Z,23.1
2017-02-26T13:19:21.102Z,23.2
2017-02-26T13:20:29.182Z,23.1
2017-02-26T13:21:37.277Z,23.1
2017-02-26T13:22:45.372Z,23.2
2017-02-26T13:23:53.458Z,23.2
2017-02-26T13:25:01.550Z,23.1
2017-02-26T13:26:09.643Z,23.1
2017-02-26T13:27:17.733Z,23.1
2017-02-26T13:28:25.834Z,23.1
2017-02-26T13:29:33.913Z,23.2
2017-02-26T13:30:42.006Z,23.1
2017-02-26T13:31:50.091Z,23.2
2017-02-26T13:32:58.196Z,23.2
2017-02-26T13:34:06.289Z,23.2
2017-02-26T13:35:14.382Z,23.3
2017-02-26T13:36:22.469Z,23.3
2017-02-26T13:37:30.554Z,23.3
2017-02-26T13:38:38.645Z,23.3
2017-02-26T13:39:46.733Z,23.2
2017-02-26T13:40:54.825Z,23.3
2017-02-26T13:42:02.916Z,23.3
2017-02-26T13:43:11.001Z,23.3
2017-02-26T13:44:19.096Z,23.3
2017-02-26T13:45:27.186Z,23.3
2017-02-26T13:46:35.286Z,23.4
2017-02-26T13:47:43.391Z,23.3
2017-02-26T13:48:51.464Z,23.3
2017-02-26T13:49:59.553Z,23.2
2017-02-26T13:51:07.643Z,23.3
2017-02-26T13:52:15.729Z,23.3
2017-02-26T13:53:23.830Z,23.4
2017-02-26T13:54:31.923Z,23.3
2017-02-26T13:55:40.005Z,23.4
2017-02-26T13:56:48.100Z,23.4
2017-02-26T13:57:56.193Z,23.3
2017-02-26T13:59:04.282Z,23.3
2017-02-26T14:00:12.369Z,23.5
2017-02-26T14:01:20.463Z,23.4
2017-02-26T14:02:28.545Z,23.4
2017-02-26T14:03:36.639Z,23.4
2017-02-26T14:04:44.732Z,23.5
2017-02-26T14:05:52.831Z,23.3
2017-02-26T14:07:00.915Z,23.4
2017-02-26T14:08:09.009Z,23.4
2017-02-26T14:09:17.107Z,23.4
2017-02-26T14:10:25.190Z,23.4
2017-02-26T14:11:33.282Z,23.4
2017-02-26T14:12:41.368Z,23.4
2017-02-26T14:13:49.460Z,23.5
2017-02-26T14:14:57.543Z,23.5
2017-02-26T14:16:05.642Z,23.4
2017-02-26T14:17:13.730Z,23.5
2017-02-26T14:18:21.815Z,23.5
2017-02-26T14:19:29.904Z,23.5
2017-02-26T14:20:37.999Z,23.5
2017-02-26T14:21:46.084Z,23.5
2017-02-26T14:22:54.180Z,23.5
2017-02-26T14:24:02.264Z,23.5
2017-02-26T14:25:10.354Z,23.5
2017-02-26T14:26:18.442Z,23.5
2017-02-26T14:27:26.529Z,23.5
2017-02-26T14:28:34.630Z,23.5
2017-02-26T14:29:42.718Z,23.5
2017-02-26T14:30:50.807Z,23.5
2017-02-26T14:31:58.902Z,23.5
2017-02-26T14:33:06.990Z,23.4
2017-02-26T14:34:15.085Z,23.5
2017-02-26T14:35:23.176Z,23.5
2017-02-26T14:36:31.261Z,23.5
2017-02-26T14:37:39.364Z,23.6
2017-02-26T14:38:47.450Z,23.5
2017-02-26T14:39:55.540Z,23.4
2017-02-26T14:41:03.622Z,23.5
2017-02-26T14:42:11.711Z,23.4
2017-02-26T14:43:19.802Z,23.4
2017-02-26T14:44:27.901Z,23.4
2017-02-26T14:45:36.005Z,23.4
2017-02-26T14:46:44.093Z,23.5
2017-02-26T14:47:52.180Z,23.4
2017-02-26T14:49:00.269Z,23.4
2017-02-26T14:50:08.354Z,23.5
2017-02-26T14:51:16.442Z,23.4
2017-02-26T14:52:24.540Z,23.4
2017-02-26T14:53:32.630Z,23.5
2017-02-26T14:54:40.716Z,23.4
2017-02-26T14:55:48.802Z,23.4
2017-02-26T14:56:56.904Z,23.4
2017-02-26T14:58:04.992Z,23.4
2017-02-26T14:59:13.081Z,23.4
2017-02-26T15:00:21.172Z,23.3
2017-02-26T15:01:29.263Z,23.5
2017-02-26T15:02:37.352Z,23.4
2017-02-26T15:03:45.441Z,23.4
2017-02-26T15:04:53.538Z,23.4
2017-02-26T15:06:01.621Z,23.4